Terminal Aerodrome Forecast
Issued by NWS

Home | Current Version | Previous Version | Text Only | Print | Product List | Glossary On
Versions: 1 2 3 4 5 6 7 8 9 10 11 12 13 14 15 16 17 18 19 20 21 22 23 24 25
000
FTUS46 KLOX 302033 AAA
TAFLAX
TAF AMD
KLAX 302033Z 3021/0124 26012KT P6SM SCT150 BKN250
     FM010500 VRB03KT P6SM SCT250
     FM011100 VRB03KT P6SM FEW010 SCT250
     FM011300 19005KT P6SM BKN009
     FM011700 25007KT P6SM SCT010 BKN250
     FM012000 25011KT P6SM SCT150 BKN250=

USA.gov is the U.S. government's official web portal to all federal, state and local government web resources and services.